Time;durP1;ratioP1;P1;durP2;ratioP2;P2;SDS_P1;SDS_P2;PMS_P1;PMS_P2;Temp;Humidity;BMP_temperature;BMP_pressure;BME280_temperature;BME280_humidity;BME280_pressure;Samples;Min_cycle;Max_cycle;Signal;HPM_P1;HPM_P2
2021/11/01 00:01:43;;;;;;;4.40;1.85;;;13.90;91.50;;;;;;5025146;28;20032;-79
2021/11/01 00:04:09;;;;;;;7.88;1.98;;;13.90;91.60;;;;;;5021380;28;20564;-79
2021/11/01 00:06:34;;;;;;;6.47;1.80;;;13.90;91.70;;;;;;5029882;28;20033;-79
2021/11/01 00:09:00;;;;;;;8.45;1.92;;;13.80;91.70;;;;;;5033753;28;20053;-79
2021/11/01 00:11:26;;;;;;;5.90;1.58;;;13.80;91.80;;;;;;5030717;28;20033;-79
2021/11/01 00:13:53;;;;;;;9.70;1.98;;;13.80;91.80;;;;;;5024532;28;20045;-79
2021/11/01 00:16:18;;;;;;;8.50;1.83;;;13.80;91.90;;;;;;5023613;28;20026;-79
2021/11/01 00:18:44;;;;;;;4.57;0.85;;;13.70;91.90;;;;;;5026073;28;20426;-80
2021/11/01 00:21:10;;;;;;;6.13;1.27;;;13.70;91.90;;;;;;5025072;28;20057;-79
2021/11/01 00:23:36;;;;;;;5.15;1.02;;;13.70;91.90;;;;;;5033730;28;20041;-80
2021/11/01 00:26:02;;;;;;;7.53;1.48;;;13.70;91.90;;;;;;5025172;28;20032;-79
2021/11/01 00:28:30;;;;;;;6.03;1.77;;;13.70;91.90;;;;;;5021696;28;20034;-80
2021/11/01 00:30:58;;;;;;;8.18;1.75;;;13.60;91.90;;;;;;5029538;28;20033;-79
2021/11/01 00:33:25;;;;;;;15.32;2.22;;;13.60;91.90;;;;;;5030395;28;20037;-79
2021/11/01 00:35:51;;;;;;;5.20;1.00;;;13.60;91.80;;;;;;5034301;28;20028;-79
2021/11/01 00:38:18;;;;;;;9.80;1.70;;;13.60;91.80;;;;;;5026429;28;20033;-80
2021/11/01 00:40:44;;;;;;;5.68;1.65;;;13.60;91.80;;;;;;5028356;28;20116;-79
2021/11/01 00:43:09;;;;;;;11.02;2.50;;;13.50;91.80;;;;;;5027808;28;20156;-79
2021/11/01 00:45:36;;;;;;;7.40;2.00;;;13.50;91.90;;;;;;5033146;28;20038;-80
2021/11/01 00:48:02;;;;;;;10.02;2.58;;;13.50;91.90;;;;;;5024438;28;20025;-80
2021/11/01 00:50:30;;;;;;;6.00;2.50;;;13.40;92.00;;;;;;5020945;28;20792;-79
2021/11/01 00:52:56;;;;;;;14.35;2.38;;;13.40;92.00;;;;;;5034684;28;20033;-80
2021/11/01 00:55:32;;;;;;;5.47;1.35;;;13.40;92.00;;;;;;5034555;28;20547;-80
2021/11/01 00:57:59;;;;;;;13.50;2.30;;;13.40;92.00;;;;;;5019776;28;20025;-80
2021/11/01 01:00:24;;;;;;;9.05;2.67;;;13.40;92.00;;;;;;5019668;28;20408;-80
2021/11/01 01:02:50;;;;;;;8.07;1.88;;;13.40;92.00;;;;;;5027228;28;20050;-79
2021/11/01 01:05:16;;;;;;;3.15;1.20;;;13.40;91.90;;;;;;5019005;28;20125;-80
2021/11/01 01:07:45;;;;;;;10.73;2.25;;;13.40;91.90;;;;;;5029585;28;20032;-80
2021/11/01 01:10:10;;;;;;;7.28;1.98;;;13.30;91.90;;;;;;5026227;28;20036;-79
2021/11/01 01:12:41;;;;;;;7.72;1.85;;;13.40;91.90;;;;;;5017179;28;20156;-80
2021/11/01 01:15:15;;;;;;;4.88;1.63;;;13.40;91.90;;;;;;5027180;28;20109;-80
2021/11/01 01:17:42;;;;;;;7.57;1.40;;;13.30;91.90;;;;;;5031364;28;20400;-80
2021/11/01 01:20:12;;;;;;;8.73;1.52;;;13.30;92.00;;;;;;5033986;28;20083;-80
2021/11/01 01:22:39;;;;;;;11.38;1.63;;;13.30;92.00;;;;;;5021265;28;20432;-79
2021/11/01 01:25:15;;;;;;;4.70;1.55;;;13.20;91.90;;;;;;5033168;28;20472;-80
2021/11/01 01:27:42;;;;;;;5.80;1.30;;;13.20;91.90;;;;;;5009933;28;20017;-80
2021/11/01 01:30:09;;;;;;;12.18;2.90;;;13.30;91.90;;;;;;5023419;28;20025;-79
2021/11/01 01:32:38;;;;;;;5.93;1.10;;;13.20;91.90;;;;;;5025402;28;20030;-81
2021/11/01 01:35:05;;;;;;;0.52;0.50;;;13.30;91.90;;;;;;5020610;28;20637;-79
2021/11/01 01:37:30;;;;;;;0.75;0.75;;;13.20;91.90;;;;;;5032740;28;20033;-79
2021/11/01 01:39:56;;;;;;;9.13;2.17;;;13.30;91.90;;;;;;5031730;28;20084;-79
2021/11/01 01:42:23;;;;;;;1.45;0.75;;;13.20;91.90;;;;;;5024042;28;20033;-80
2021/11/01 01:44:49;;;;;;;12.63;2.55;;;13.20;91.90;;;;;;5029105;28;20045;-80
2021/11/01 01:47:17;;;;;;;6.65;1.98;;;13.20;91.90;;;;;;5024583;28;20049;-80
2021/11/01 01:49:43;;;;;;;4.75;1.35;;;13.20;91.90;;;;;;5029735;28;20109;-80
2021/11/01 01:52:10;;;;;;;6.40;1.40;;;13.20;91.90;;;;;;5031090;28;20552;-82
2021/11/01 01:54:36;;;;;;;8.60;2.20;;;13.10;91.90;;;;;;5030682;28;20040;-81
2021/11/01 01:57:02;;;;;;;10.48;1.92;;;13.10;91.90;;;;;;5031541;28;20037;-80
2021/11/01 01:59:28;;;;;;;14.80;2.63;;;13.10;91.90;;;;;;5027869;28;20105;-80
2021/11/01 02:01:55;;;;;;;7.05;1.25;;;13.10;91.90;;;;;;5028118;28;20025;-81
2021/11/01 02:04:23;;;;;;;10.25;2.22;;;13.00;91.90;;;;;;5026851;28;20045;-81
2021/11/01 02:07:16;;;;;;;9.27;2.53;;;13.00;91.90;;;;;;5025737;28;20116;-81
2021/11/01 02:10:03;;;;;;;5.60;2.90;;;13.00;91.90;;;;;;5016330;28;20041;-81
2021/11/01 02:12:35;;;;;;;2.88;1.30;;;13.00;91.90;;;;;;5030479;28;20030;-80
2021/11/01 02:15:07;;;;;;;7.47;1.33;;;13.00;91.90;;;;;;5028188;28;20041;-81
2021/11/01 02:17:35;;;;;;;10.00;2.50;;;13.00;91.90;;;;;;5022326;28;20029;-81
2021/11/01 02:20:05;;;;;;;3.47;1.48;;;13.00;91.90;;;;;;5031632;28;20033;-80
2021/11/01 02:22:49;;;;;;;8.23;1.90;;;13.00;91.90;;;;;;5031183;28;20172;-80
2021/11/01 02:25:45;;;;;;;4.50;1.77;;;13.00;91.90;;;;;;5023158;28;20045;-81
2021/11/01 02:28:16;;;;;;;8.75;1.98;;;13.00;91.90;;;;;;5029561;28;20025;-81
2021/11/01 02:30:44;;;;;;;3.70;1.55;;;12.90;91.80;;;;;;5029508;28;20045;-80
2021/11/01 02:33:12;;;;;;;6.25;0.93;;;13.00;91.90;;;;;;5019047;28;20044;-80
2021/11/01 02:35:38;;;;;;;12.45;2.13;;;13.00;91.80;;;;;;5030957;28;20037;-81
2021/11/01 02:38:05;;;;;;;4.90;1.33;;;13.00;91.80;;;;;;5036133;28;20028;-80
2021/11/01 02:40:32;;;;;;;11.10;1.73;;;13.00;91.70;;;;;;5025339;28;20033;-80
2021/11/01 02:42:58;;;;;;;8.43;1.55;;;13.00;91.70;;;;;;5026443;28;20036;-80
2021/11/01 02:45:25;;;;;;;6.15;0.75;;;12.90;91.70;;;;;;5015659;28;20041;-80
2021/11/01 02:47:51;;;;;;;16.52;1.85;;;13.00;91.70;;;;;;5017568;28;20120;-80
2021/11/01 02:50:18;;;;;;;3.55;1.58;;;12.90;91.70;;;;;;5020240;28;20465;-80
2021/11/01 02:52:44;;;;;;;4.28;1.50;;;12.90;91.70;;;;;;5036022;28;20108;-80
2021/11/01 02:55:12;;;;;;;4.63;1.65;;;12.90;91.70;;;;;;5026601;28;20105;-79
2021/11/01 02:57:39;;;;;;;5.47;1.45;;;12.90;91.70;;;;;;5027199;28;20133;-80
2021/11/01 03:00:07;;;;;;;2.70;1.08;;;12.90;91.60;;;;;;5026465;28;20045;-80
2021/11/01 03:02:34;;;;;;;7.38;2.10;;;12.80;91.70;;;;;;5012663;28;20054;-81
2021/11/01 03:05:07;;;;;;;3.75;1.27;;;12.80;91.70;;;;;;5019403;28;20471;-81
2021/11/01 03:07:35;;;;;;;6.53;2.15;;;12.80;91.60;;;;;;5019322;28;20026;-81
2021/11/01 03:10:03;;;;;;;12.38;1.67;;;12.80;91.60;;;;;;5035259;28;20542;-82
2021/11/01 03:12:29;;;;;;;11.38;1.65;;;12.90;91.70;;;;;;5031221;28;20539;-82
2021/11/01 03:15:02;;;;;;;3.08;0.85;;;12.80;91.60;;;;;;5024238;28;20060;-82
2021/11/01 03:17:32;;;;;;;7.43;1.98;;;12.80;91.60;;;;;;5030472;28;20366;-82
2021/11/01 03:20:13;;;;;;;2.15;1.00;;;12.80;91.60;;;;;;5022890;28;20041;-82
2021/11/01 03:22:46;;;;;;;12.55;1.95;;;12.80;91.60;;;;;;5023500;28;20026;-81
2021/11/01 03:25:23;;;;;;;12.98;2.60;;;12.80;91.60;;;;;;5027783;28;20041;-81
2021/11/01 03:27:53;;;;;;;8.13;1.23;;;12.70;91.60;;;;;;5017389;28;20424;-82
2021/11/01 03:30:20;;;;;;;5.40;1.90;;;12.70;91.60;;;;;;5030865;28;20034;-83
2021/11/01 03:32:48;;;;;;;8.68;1.98;;;12.70;91.60;;;;;;5018866;28;20053;-81
2021/11/01 03:35:15;;;;;;;9.60;1.90;;;12.70;91.60;;;;;;5024879;28;20026;-83
2021/11/01 03:37:42;;;;;;;3.00;1.15;;;12.70;91.60;;;;;;5022381;28;20036;-82
2021/11/01 03:40:11;;;;;;;4.65;0.52;;;12.70;91.60;;;;;;5023127;28;20465;-81
2021/11/01 03:42:37;;;;;;;7.82;1.25;;;12.70;91.60;;;;;;5027465;28;20064;-82
2021/11/01 03:45:07;;;;;;;6.93;1.40;;;12.70;91.60;;;;;;5024168;28;20029;-82
2021/11/01 03:47:40;;;;;;;6.65;1.13;;;12.70;91.50;;;;;;5026421;28;20029;-82
2021/11/01 03:50:16;;;;;;;5.47;1.23;;;12.70;91.50;;;;;;5013989;28;20429;-82
2021/11/01 03:52:44;;;;;;;16.02;1.90;;;12.70;91.40;;;;;;5028454;28;20264;-81
2021/11/01 03:55:14;;;;;;;4.78;0.98;;;12.70;91.40;;;;;;5030696;28;20552;-82
2021/11/01 03:57:40;;;;;;;1.13;1.00;;;12.70;91.40;;;;;;5022605;28;20495;-84
2021/11/01 04:00:06;;;;;;;9.02;2.22;;;12.70;91.40;;;;;;5028941;28;20029;-82
2021/11/01 04:02:33;;;;;;;3.05;1.08;;;12.70;91.40;;;;;;5019161;28;20045;-82
2021/11/01 04:05:02;;;;;;;5.47;1.17;;;12.70;91.30;;;;;;5028308;28;20091;-82
2021/11/01 04:07:31;;;;;;;7.18;1.15;;;12.60;91.30;;;;;;5027784;28;20051;-82
2021/11/01 04:09:58;;;;;;;9.02;1.83;;;12.70;91.60;;;;;;5020680;28;20511;-81
2021/11/01 04:12:23;;;;;;;15.45;1.45;;;12.60;91.20;;;;;;5029085;28;20040;-81
2021/11/01 04:14:57;;;;;;;5.75;1.20;;;12.70;91.20;;;;;;5029965;28;20033;-82
2021/11/01 04:17:38;;;;;;;4.38;1.33;;;12.60;91.20;;;;;;5031754;28;20075;-83
2021/11/01 04:22:52;;;;;;;12.15;2.00;;;12.60;91.20;;;;;;5026452;28;20026;-83
2021/11/01 04:25:20;;;;;;;7.28;1.42;;;12.60;91.30;;;;;;5023818;28;20046;-82
2021/11/01 04:27:46;;;;;;;17.55;2.20;;;12.60;91.20;;;;;;5034932;28;20025;-89
2021/11/01 04:30:13;;;;;;;7.13;1.30;;;12.60;91.20;;;;;;5031382;28;20041;-84
2021/11/01 04:32:41;;;;;;;15.80;1.48;;;12.60;91.20;;;;;;5032765;28;20120;-69
2021/11/01 04:35:14;;;;;;;4.38;1.35;;;12.60;91.20;;;;;;5029217;28;20384;-82
2021/11/01 04:37:42;;;;;;;3.08;1.77;;;12.50;91.10;;;;;;5027690;28;20017;-82
2021/11/01 04:53:26;;;;;;;0.65;0.65;;;12.50;91.20;;;;;;5030347;28;20057;-81
2021/11/01 04:55:52;;;;;;;6.30;1.63;;;12.50;91.10;;;;;;5031725;28;20514;-82
2021/11/01 04:58:18;;;;;;;2.15;1.08;;;12.40;91.10;;;;;;5032582;28;20552;-82
2021/11/01 05:00:46;;;;;;;6.13;1.15;;;12.40;91.10;;;;;;5028476;28;20041;-82
2021/11/01 05:05:47;;;;;;;4.20;0.77;;;12.40;91.10;;;;;;5027845;28;20029;-83
2021/11/01 05:08:14;;;;;;;3.05;0.60;;;12.40;91.10;;;;;;5031103;28;20378;-81
2021/11/01 05:10:42;;;;;;;7.05;1.52;;;12.40;91.10;;;;;;5024349;28;20091;-83
2021/11/01 05:13:13;;;;;;;5.78;1.02;;;12.40;91.10;;;;;;5034457;28;20033;-82
2021/11/01 05:15:53;;;;;;;3.45;0.60;;;12.40;91.00;;;;;;5034521;28;20086;-82
2021/11/01 05:20:57;;;;;;;2.47;1.17;;;12.30;91.00;;;;;;5033038;28;20029;-83
2021/11/01 05:23:33;;;;;;;1.13;0.90;;;12.30;91.00;;;;;;5032965;28;20155;-82
2021/11/01 05:26:03;;;;;;;6.28;1.15;;;12.20;91.00;;;;;;5031858;28;20089;-83
2021/11/01 05:31:14;;;;;;;6.60;1.92;;;12.20;91.40;;;;;;5034077;28;20030;-83
2021/11/01 05:34:01;;;;;;;8.85;1.10;;;12.20;91.10;;;;;;5034145;28;20033;-83
2021/11/01 05:36:31;;;;;;;6.32;1.58;;;12.20;91.10;;;;;;5031106;28;20034;-80
2021/11/01 05:38:57;;;;;;;3.67;1.08;;;12.10;91.00;;;;;;5027377;28;20044;-77
2021/11/01 05:41:23;;;;;;;0.85;0.75;;;12.10;91.10;;;;;;5032534;28;20021;-80
2021/11/01 05:43:48;;;;;;;10.98;1.60;;;12.10;91.10;;;;;;5028068;28;20030;-75
2021/11/01 05:46:15;;;;;;;3.33;1.55;;;12.10;91.10;;;;;;5033157;28;20491;-74
2021/11/01 05:48:48;;;;;;;5.30;1.20;;;12.10;91.10;;;;;;5023755;28;20125;-89
2021/11/01 05:51:16;;;;;;;8.88;1.35;;;12.10;91.10;;;;;;5032329;28;20041;-87
2021/11/01 05:53:43;;;;;;;11.50;2.40;;;12.10;91.10;;;;;;5031187;28;20544;-84
2021/11/01 06:01:34;;;;;;;4.75;1.58;;;12.10;91.00;;;;;;5034163;28;20025;-83
2021/11/01 06:04:04;;;;;;;2.78;0.73;;;12.10;91.10;;;;;;5030472;28;20049;-86
2021/11/01 06:14:31;;;;;;;5.95;1.60;;;12.00;91.00;;;;;;5032769;28;20048;-80
2021/11/01 06:16:56;;;;;;;6.57;1.77;;;12.00;91.00;;;;;;5032938;28;20489;-79
2021/11/01 06:19:22;;;;;;;11.20;1.05;;;12.00;91.00;;;;;;5029137;28;20083;-78
2021/11/01 06:21:48;;;;;;;3.30;1.27;;;12.00;91.00;;;;;;5025404;28;20025;-79
2021/11/01 06:26:59;;;;;;;12.77;2.13;;;12.00;91.00;;;;;;5024178;28;20087;-78
2021/11/01 06:29:30;;;;;;;6.60;1.48;;;12.10;91.00;;;;;;5028276;28;20042;-76
2021/11/01 06:32:12;;;;;;;2.85;1.10;;;12.10;90.90;;;;;;5019503;28;20083;-76
2021/11/01 06:50:35;;;;;;;4.95;1.73;;;11.90;90.80;;;;;;5027352;28;20124;-78
2021/11/01 06:55:51;;;;;;;11.07;1.45;;;11.90;90.80;;;;;;5025066;28;20137;-78
2021/11/01 06:58:39;;;;;;;2.15;1.20;;;11.90;90.80;;;;;;5023656;28;20499;-78
2021/11/01 07:14:52;;;;;;;4.95;0.70;;;11.80;90.90;;;;;;5026323;28;20046;-78
2021/11/01 07:17:36;;;;;;;4.65;1.40;;;11.80;90.90;;;;;;5024584;28;20404;-78
2021/11/01 07:20:23;;;;;;;4.18;1.63;;;11.80;91.00;;;;;;5027322;28;20036;-79
2021/11/01 07:23:12;;;;;;;3.40;1.52;;;11.70;91.00;;;;;;5026512;28;20029;-79
2021/11/01 08:23:30;;;;;;;3.17;1.65;;;11.70;92.10;;;;;;5021380;28;20168;-79
2021/11/01 09:01:22;;;;;;;2.22;1.20;;;11.60;92.80;;;;;;5032153;28;20057;-78
2021/11/01 09:06:10;;;;;;;9.55;1.63;;;11.60;93.10;;;;;;5032629;28;20029;-77
2021/11/01 09:11:48;;;;;;;7.38;2.08;;;11.50;93.10;;;;;;5032143;28;20041;-75
2021/11/01 09:19:49;;;;;;;2.60;1.13;;;11.50;93.20;;;;;;5026900;28;20079;-77
2021/11/01 09:24:53;;;;;;;11.15;2.03;;;11.60;93.10;;;;;;5029556;28;20037;-77
2021/11/01 09:27:21;;;;;;;2.60;1.33;;;11.70;93.10;;;;;;5021546;28;20025;-77
2021/11/01 09:30:40;;;;;;;3.03;1.27;;;11.70;93.00;;;;;;5031321;28;20037;-77
2021/11/01 09:35:50;;;;;;;9.15;1.88;;;11.80;93.00;;;;;;5025660;28;20495;-77
2021/11/01 09:43:50;;;;;;;1.80;1.10;;;11.80;92.90;;;;;;5010556;28;20034;-77
2021/11/01 09:46:17;;;;;;;2.20;1.05;;;11.80;92.90;;;;;;5008807;28;20045;-77
2021/11/01 09:48:42;;;;;;;3.75;0.93;;;11.90;92.90;;;;;;5016074;28;20048;-77
2021/11/01 09:51:09;;;;;;;4.10;1.67;;;11.90;92.90;;;;;;5025509;28;20397;-77
2021/11/01 09:53:46;;;;;;;8.02;1.67;;;12.00;92.90;;;;;;5027274;28;20041;-79
2021/11/01 09:59:13;;;;;;;2.88;1.50;;;12.00;92.90;;;;;;5022874;28;20029;-80
2021/11/01 10:01:46;;;;;;;8.43;1.98;;;12.00;92.80;;;;;;5021616;28;20040;-81
2021/11/01 10:04:14;;;;;;;2.78;1.40;;;12.10;92.90;;;;;;5027884;28;20072;-81
2021/11/01 10:06:40;;;;;;;6.05;2.45;;;12.10;92.80;;;;;;5020624;28;20029;-81
2021/11/01 10:09:12;;;;;;;4.90;1.73;;;12.10;92.80;;;;;;5031768;28;20030;-81
2021/11/01 10:11:39;;;;;;;8.52;1.75;;;12.10;92.80;;;;;;5025782;28;20028;-81
2021/11/01 10:14:10;;;;;;;7.35;2.22;;;12.10;92.80;;;;;;5031501;28;20036;-80
2021/11/01 10:19:43;;;;;;;7.65;2.35;;;12.20;92.80;;;;;;5018208;28;20116;-79
2021/11/01 10:22:19;;;;;;;7.40;1.27;;;12.30;92.80;;;;;;5019141;28;20034;-79
2021/11/01 10:24:44;;;;;;;12.05;1.30;;;12.30;92.70;;;;;;5022951;28;20038;-79
2021/11/01 10:27:26;;;;;;;7.63;1.50;;;12.30;92.70;;;;;;5025241;28;20029;-79
2021/11/01 10:29:53;;;;;;;4.90;1.30;;;12.30;92.70;;;;;;5021554;28;20034;-80
2021/11/01 10:32:29;;;;;;;5.72;1.85;;;12.30;92.70;;;;;;5018740;28;20473;-79
2021/11/01 10:35:43;;;;;;;3.30;1.58;;;12.40;92.70;;;;;;5026967;28;20037;-78
2021/11/01 10:38:35;;;;;;;1.05;0.80;;;12.40;92.70;;;;;;5023929;28;20389;-76
2021/11/01 10:41:12;;;;;;;4.63;1.92;;;12.40;92.70;;;;;;5029437;28;20128;-77
2021/11/01 10:57:27;;;;;;;4.90;1.80;;;12.60;92.50;;;;;;5025838;28;20036;-77
2021/11/01 11:13:22;;;;;;;9.02;1.38;;;12.80;92.40;;;;;;5010972;28;20033;-78
2021/11/01 11:15:55;;;;;;;1.15;1.00;;;12.80;92.40;;;;;;5019726;28;20025;-77
2021/11/01 11:29:16;;;;;;;2.93;0.80;;;12.90;92.30;;;;;;5019805;28;20030;-77
2021/11/01 11:43:49;;;;;;;5.30;1.67;;;13.10;92.40;;;;;;5026915;28;20045;-75
2021/11/01 11:49:24;;;;;;;4.03;1.20;;;13.30;92.20;;;;;;5021750;28;20434;-75
2021/11/01 11:52:01;;;;;;;7.10;1.80;;;13.30;92.20;;;;;;5026081;28;20065;-76
2021/11/01 11:54:32;;;;;;;2.15;1.02;;;13.40;92.20;;;;;;5027462;28;20065;-75
2021/11/01 11:57:03;;;;;;;4.15;1.10;;;13.40;92.10;;;;;;5031735;28;20420;-75
2021/11/01 11:59:38;;;;;;;6.75;1.50;;;13.50;92.00;;;;;;5029536;28;20030;-76
2021/11/01 12:02:09;;;;;;;0.82;0.80;;;13.50;91.90;;;;;;5029803;28;20073;-75
2021/11/01 12:04:42;;;;;;;3.65;1.08;;;13.60;91.80;;;;;;5014557;28;20057;-80
2021/11/01 12:07:12;;;;;;;1.48;1.25;;;13.60;92.10;;;;;;5027508;28;20057;-82
2021/11/01 12:09:57;;;;;;;3.95;1.02;;;13.70;92.20;;;;;;5019725;28;20041;-79
2021/11/01 12:17:54;;;;;;;0.90;0.80;;;13.80;91.70;;;;;;5023168;28;20422;-79
2021/11/01 12:20:22;;;;;;;3.13;0.98;;;13.90;91.50;;;;;;5024251;28;20484;-79
2021/11/01 12:22:50;;;;;;;5.68;1.38;;;13.90;91.60;;;;;;5029076;28;20122;-79
2021/11/01 12:25:19;;;;;;;2.42;1.23;;;14.00;91.50;;;;;;5023172;28;20050;-80
2021/11/01 12:28:02;;;;;;;2.85;1.30;;;14.00;91.40;;;;;;5017101;28;20069;-80
2021/11/01 12:30:43;;;;;;;5.72;1.58;;;14.00;91.20;;;;;;5023615;28;20029;-78
2021/11/01 12:33:13;;;;;;;8.43;1.60;;;14.10;91.10;;;;;;5030863;28;20087;-71
2021/11/01 12:35:47;;;;;;;6.60;1.40;;;14.10;91.20;;;;;;5028498;28;20029;-80
2021/11/01 12:38:19;;;;;;;;;;;14.10;91.10;;;;;;5026949;28;20026;-78
2021/11/01 12:41:00;;;;;;;2.30;0.88;;;14.10;91.20;;;;;;5025596;28;19909;-77
2021/11/01 12:57:31;;;;;;;5.78;1.67;;;14.40;90.80;;;;;;5027929;28;20072;-77
2021/11/01 12:59:58;;;;;;;4.22;1.15;;;14.40;90.70;;;;;;5021741;28;20500;-81
2021/11/01 13:02:26;;;;;;;1.98;1.17;;;14.50;90.60;;;;;;5029454;28;20400;-81
2021/11/01 13:04:52;;;;;;;6.20;1.65;;;14.50;90.50;;;;;;5022487;28;20100;-72
2021/11/01 13:10:18;;;;;;;2.42;0.73;;;14.50;90.40;;;;;;5030079;28;20029;-82
2021/11/01 13:18:14;;;;;;;1.55;1.02;;;14.70;90.40;;;;;;5023606;28;20465;-79
2021/11/01 13:20:48;;;;;;;2.75;0.77;;;14.70;90.30;;;;;;5029024;28;20040;-79
2021/11/01 13:23:15;;;;;;;1.13;0.73;;;14.80;90.20;;;;;;5032278;28;20061;-79
2021/11/01 13:25:54;;;;;;;1.95;1.17;;;14.90;90.30;;;;;;5031428;28;20095;-79
2021/11/01 13:34:46;;;;;;;1.75;0.73;;;15.00;89.40;;;;;;5026872;28;20955;-77
2021/11/01 13:36:41;;;;;;;0.82;0.63;;;15.00;89.50;;;;;;5022110;28;20094;-77
2021/11/01 13:39:09;;;;;;;2.13;1.02;;;15.10;89.90;;;;;;5028084;28;20033;-78
2021/11/01 13:41:35;;;;;;;1.02;0.80;;;15.10;89.80;;;;;;5029199;28;20116;-78
2021/11/01 13:44:15;;;;;;;0.70;0.70;;;15.20;89.60;;;;;;5027165;28;20163;-77
2021/11/01 13:46:46;;;;;;;3.90;1.42;;;15.20;89.70;;;;;;5027901;28;20025;-77
2021/11/01 13:49:14;;;;;;;2.10;0.90;;;15.20;89.20;;;;;;5024392;28;20404;-77
2021/11/01 13:51:42;;;;;;;0.65;0.65;;;15.30;89.10;;;;;;5026267;28;20041;-77
2021/11/01 13:54:18;;;;;;;1.00;0.75;;;15.30;87.80;;;;;;5025835;28;20512;-77
2021/11/01 13:56:49;;;;;;;2.15;0.98;;;15.30;87.90;;;;;;5026233;28;20025;-76
2021/11/01 13:59:46;;;;;;;3.20;1.02;;;15.40;88.40;;;;;;5029032;28;20125;-77
2021/11/01 14:13:22;;;;;;;4.85;1.70;;;15.60;87.50;;;;;;5026532;28;20477;-77
2021/11/01 14:35:06;;;;;;;6.45;1.27;;;15.80;85.50;;;;;;5018052;28;20370;-77
2021/11/01 15:23:24;;;;;;;4.65;0.60;;;16.30;85.10;;;;;;5026858;28;20038;-81
2021/11/01 15:28:53;;;;;;;3.55;0.73;;;16.40;86.50;;;;;;5024570;28;20024;-81
2021/11/01 16:17:22;;;;;;;3.40;0.98;;;16.30;85.70;;;;;;5025000;28;20037;-73
2021/11/01 16:19:50;;;;;;;1.75;0.90;;;16.30;86.40;;;;;;5028302;28;20057;-82
2021/11/01 16:22:18;;;;;;;5.75;1.30;;;16.20;85.90;;;;;;5026573;28;20060;-79
2021/11/01 16:24:46;;;;;;;1.42;0.88;;;16.20;85.50;;;;;;5022744;28;20030;-87
2021/11/01 16:27:15;;;;;;;7.90;2.22;;;16.20;85.80;;;;;;5020279;28;20124;-77
2021/11/01 16:32:26;;;;;;;5.80;1.20;;;16.20;85.90;;;;;;5031766;28;20034;-76
2021/11/01 16:34:58;;;;;;;4.22;1.70;;;16.10;85.70;;;;;;5025104;28;20029;-76
2021/11/01 16:39:52;;;;;;;4.47;1.30;;;16.10;85.60;;;;;;5028245;28;20029;-78
2021/11/01 16:42:28;;;;;;;3.85;1.52;;;16.10;85.60;;;;;;5035133;28;20017;-76
2021/11/01 16:44:56;;;;;;;7.35;1.05;;;16.00;85.20;;;;;;5031134;28;20102;-78
2021/11/01 16:47:22;;;;;;;4.38;1.05;;;16.00;85.80;;;;;;5029696;28;20112;-80
2021/11/01 16:49:51;;;;;;;4.97;1.27;;;15.90;85.90;;;;;;5032097;28;20520;-78
2021/11/01 16:52:19;;;;;;;7.05;1.65;;;15.90;86.00;;;;;;5025993;28;20034;-78
2021/11/01 16:54:54;;;;;;;4.07;1.60;;;15.90;85.90;;;;;;5022085;28;20117;-81
2021/11/01 16:57:31;;;;;;;8.35;1.75;;;15.90;85.70;;;;;;5023999;28;20061;-79
2021/11/01 17:02:46;;;;;;;10.50;2.50;;;15.90;85.10;;;;;;5025505;28;20037;-81
2021/11/01 17:35:24;;;;;;;3.55;1.73;;;15.30;83.70;;;;;;5027540;28;20029;-86
2021/11/01 18:44:30;;;;;;;7.10;1.90;;;14.50;83.80;;;;;;5012843;28;20176;-82
2021/11/01 18:52:12;;;;;;;11.25;1.80;;;14.50;83.80;;;;;;5023654;28;20033;-81
2021/11/01 18:54:41;;;;;;;12.65;1.42;;;14.40;83.80;;;;;;5026023;28;20033;-81
2021/11/01 18:57:08;;;;;;;8.88;1.70;;;14.40;83.90;;;;;;5029913;28;20022;-81
2021/11/01 18:59:36;;;;;;;4.50;1.38;;;14.40;84.10;;;;;;5023438;28;20099;-80
2021/11/01 19:04:43;;;;;;;4.22;1.40;;;14.30;84.00;;;;;;5022608;28;20420;-81
2021/11/01 20:04:47;;;;;;;4.47;1.38;;;13.60;85.50;;;;;;5027660;28;20074;-80
2021/11/01 20:13:12;;;;;;;1.10;1.02;;;13.60;85.70;;;;;;5028211;28;20491;-83
2021/11/01 21:25:49;;;;;;;6.45;2.30;;;13.00;85.40;;;;;;5024263;28;20073;-72
2021/11/01 21:28:15;;;;;;;4.63;1.58;;;13.00;85.40;;;;;;5019598;28;20029;-82
2021/11/01 21:30:42;;;;;;;4.00;1.70;;;13.00;85.60;;;;;;5021586;28;20120;-80
2021/11/01 21:33:13;;;;;;;6.35;1.50;;;12.90;85.50;;;;;;5024654;28;20099;-81
2021/11/01 21:36:02;;;;;;;2.83;1.40;;;12.90;85.40;;;;;;5027830;28;20029;-82
2021/11/01 21:38:28;;;;;;;4.22;1.30;;;12.90;85.50;;;;;;5030338;28;20037;-83
2021/11/01 21:40:54;;;;;;;3.42;0.90;;;12.90;85.40;;;;;;5033189;28;20055;-82
2021/11/01 21:43:21;;;;;;;3.17;1.63;;;12.90;85.40;;;;;;5029187;28;20034;-83
2021/11/01 21:45:47;;;;;;;4.60;1.35;;;12.90;85.40;;;;;;5030805;28;20161;-83
2021/11/01 21:48:13;;;;;;;4.18;1.42;;;12.80;85.40;;;;;;5029697;28;20029;-83
2021/11/01 21:50:43;;;;;;;2.95;1.30;;;12.80;85.40;;;;;;5026703;28;20018;-83
2021/11/01 21:53:09;;;;;;;7.32;1.38;;;12.80;85.40;;;;;;5029493;28;20041;-83
2021/11/01 21:55:36;;;;;;;2.50;0.70;;;12.80;85.50;;;;;;5025878;28;20028;-83
2021/11/01 21:58:12;;;;;;;3.35;1.23;;;12.80;85.50;;;;;;5030967;28;20112;-83
2021/11/01 22:19:50;;;;;;;1.95;1.23;;;12.60;85.50;;;;;;5026280;28;20078;-83
2021/11/01 22:25:10;;;;;;;3.78;1.17;;;12.50;85.40;;;;;;5032361;28;20033;-83
2021/11/01 22:41:17;;;;;;;2.42;0.63;;;12.30;85.50;;;;;;5030797;28;20420;-81
2021/11/01 22:46:32;;;;;;;2.05;1.20;;;12.20;85.40;;;;;;5024329;28;20041;-81
2021/11/01 22:55:33;;;;;;;2.50;1.02;;;12.20;85.40;;;;;;5019910;28;20045;-81
2021/11/01 22:57:11;;;;;;;4.25;1.45;;;12.10;85.60;;;;;;5022937;28;20082;-81
2021/11/01 22:59:39;;;;;;;1.42;0.90;;;12.10;85.60;;;;;;5024681;28;20045;-80
2021/11/01 23:02:05;;;;;;;3.20;1.27;;;12.00;85.60;;;;;;5028626;28;20056;-81
2021/11/01 23:32:22;;;;;;;2.58;1.42;;;12.10;84.90;;;;;;5023633;28;20041;-82
2021/11/01 23:34:50;;;;;;;2.78;1.40;;;12.10;84.80;;;;;;5022172;28;20041;-82
2021/11/01 23:37:17;;;;;;;2.85;1.55;;;12.10;84.80;;;;;;5030365;28;20037;-82
2021/11/01 23:39:43;;;;;;;3.58;1.35;;;12.10;84.70;;;;;;5021507;28;20053;-81
2021/11/01 23:42:08;;;;;;;2.47;1.15;;;12.10;84.70;;;;;;5023207;28;20481;-82
2021/11/01 23:44:34;;;;;;;3.15;1.42;;;12.10;84.50;;;;;;5035470;28;20040;-81
2021/11/01 23:47:00;;;;;;;2.95;1.40;;;12.10;84.50;;;;;;5028990;28;20227;-81
2021/11/01 23:49:25;;;;;;;8.35;1.60;;;12.10;84.40;;;;;;5029623;28;20112;-80
2021/11/01 23:52:01;;;;;;;5.32;1.63;;;12.10;84.30;;;;;;5028977;28;20040;-81
2021/11/01 23:54:38;;;;;;;1.48;1.20;;;12.10;84.30;;;;;;5028908;28;20061;-81
2021/11/01 23:57:05;;;;;;;2.67;1.58;;;12.10;84.30;;;;;;5017547;28;20049;-82
2021/11/01 23:59:31;;;;;;;7.45;1.80;;;12.10;84.20;;;;;;5024003;28;20030;-83
